sensor_id;sensor_type;location;lat;lon;timestamp;P1;P2;P0
28026;PMS5003;15344;52.342;-1.290;2023-09-30T00:02:11;4;1;
28026;PMS5003;15344;52.342;-1.290;2023-09-30T00:04:36;2;2;
28026;PMS5003;15344;52.342;-1.290;2023-09-30T00:07:01;1;1;
28026;PMS5003;15344;52.342;-1.290;2023-09-30T00:09:26;3;2;
28026;PMS5003;15344;52.342;-1.290;2023-09-30T00:11:52;2;1;
28026;PMS5003;15344;52.342;-1.290;2023-09-30T00:14:17;4;1;
28026;PMS5003;15344;52.342;-1.290;2023-09-30T00:16:42;4;1;
28026;PMS5003;15344;52.342;-1.290;2023-09-30T00:19:07;2;2;
28026;PMS5003;15344;52.342;-1.290;2023-09-30T00:21:32;4;2;
28026;PMS5003;15344;52.342;-1.290;2023-09-30T00:23:58;1;1;
28026;PMS5003;15344;52.342;-1.290;2023-09-30T00:26:23;2;1;
28026;PMS5003;15344;52.342;-1.290;2023-09-30T00:28:48;4;1;
28026;PMS5003;15344;52.342;-1.290;2023-09-30T00:31:13;2;2;
28026;PMS5003;15344;52.342;-1.290;2023-09-30T00:33:38;2;1;
28026;PMS5003;15344;52.342;-1.290;2023-09-30T00:36:06;2;2;
28026;PMS5003;15344;52.342;-1.290;2023-09-30T00:38:29;3;2;
28026;PMS5003;15344;52.342;-1.290;2023-09-30T00:40:54;2;0;
28026;PMS5003;15344;52.342;-1.290;2023-09-30T00:43:20;1;1;
28026;PMS5003;15344;52.342;-1.290;2023-09-30T00:45:45;1;1;
28026;PMS5003;15344;52.342;-1.290;2023-09-30T00:48:10;2;1;
28026;PMS5003;15344;52.342;-1.290;2023-09-30T00:50:35;4;2;
28026;PMS5003;15344;52.342;-1.290;2023-09-30T00:53:00;2;2;
28026;PMS5003;15344;52.342;-1.290;2023-09-30T00:55:25;2;1;
28026;PMS5003;15344;52.342;-1.290;2023-09-30T00:57:51;1;1;
28026;PMS5003;15344;52.342;-1.290;2023-09-30T01:00:16;2;1;
28026;PMS5003;15344;52.342;-1.290;2023-09-30T01:02:41;1;1;
28026;PMS5003;15344;52.342;-1.290;2023-09-30T01:05:06;1;1;
28026;PMS5003;15344;52.342;-1.290;2023-09-30T01:07:32;2;2;
28026;PMS5003;15344;52.342;-1.290;2023-09-30T01:09:57;4;3;
28026;PMS5003;15344;52.342;-1.290;2023-09-30T01:12:23;3;2;
28026;PMS5003;15344;52.342;-1.290;2023-09-30T01:14:48;0;0;
28026;PMS5003;15344;52.342;-1.290;2023-09-30T01:17:13;1;1;
28026;PMS5003;15344;52.342;-1.290;2023-09-30T01:19:38;2;2;
28026;PMS5003;15344;52.342;-1.290;2023-09-30T01:22:04;1;1;
28026;PMS5003;15344;52.342;-1.290;2023-09-30T01:24:29;2;1;
28026;PMS5003;15344;52.342;-1.290;2023-09-30T01:26:54;3;1;
28026;PMS5003;15344;52.342;-1.290;2023-09-30T01:29:19;1;1;
28026;PMS5003;15344;52.342;-1.290;2023-09-30T01:31:44;0;0;
28026;PMS5003;15344;52.342;-1.290;2023-09-30T01:34:10;5;2;
28026;PMS5003;15344;52.342;-1.290;2023-09-30T01:36:35;2;2;
28026;PMS5003;15344;52.342;-1.290;2023-09-30T01:39:01;3;1;
28026;PMS5003;15344;52.342;-1.290;2023-09-30T01:41:26;3;3;
28026;PMS5003;15344;52.342;-1.290;2023-09-30T01:43:51;2;1;
28026;PMS5003;15344;52.342;-1.290;2023-09-30T01:46:16;1;1;
28026;PMS5003;15344;52.342;-1.290;2023-09-30T01:48:42;2;2;
28026;PMS5003;15344;52.342;-1.290;2023-09-30T01:51:07;1;1;
28026;PMS5003;15344;52.342;-1.290;2023-09-30T01:53:32;2;2;
28026;PMS5003;15344;52.342;-1.290;2023-09-30T01:55:58;1;1;
28026;PMS5003;15344;52.342;-1.290;2023-09-30T01:58:23;1;1;
28026;PMS5003;15344;52.342;-1.290;2023-09-30T02:00:49;2;2;
28026;PMS5003;15344;52.342;-1.290;2023-09-30T02:03:14;2;2;
28026;PMS5003;15344;52.342;-1.290;2023-09-30T02:05:39;1;1;
28026;PMS5003;15344;52.342;-1.290;2023-09-30T02:08:05;1;1;
28026;PMS5003;15344;52.342;-1.290;2023-09-30T02:10:30;7;1;
28026;PMS5003;15344;52.342;-1.290;2023-09-30T02:12:55;1;1;
28026;PMS5003;15344;52.342;-1.290;2023-09-30T02:15:20;2;2;
28026;PMS5003;15344;52.342;-1.290;2023-09-30T02:17:45;0;0;
28026;PMS5003;15344;52.342;-1.290;2023-09-30T02:20:11;3;2;
28026;PMS5003;15344;52.342;-1.290;2023-09-30T02:22:36;3;2;
28026;PMS5003;15344;52.342;-1.290;2023-09-30T02:25:01;2;1;
28026;PMS5003;15344;52.342;-1.290;2023-09-30T02:27:26;2;2;
28026;PMS5003;15344;52.342;-1.290;2023-09-30T02:29:52;3;1;
28026;PMS5003;15344;52.342;-1.290;2023-09-30T02:32:17;3;1;
28026;PMS5003;15344;52.342;-1.290;2023-09-30T02:34:42;2;2;
28026;PMS5003;15344;52.342;-1.290;2023-09-30T02:37:07;1;1;
28026;PMS5003;15344;52.342;-1.290;2023-09-30T02:39:32;1;1;
28026;PMS5003;15344;52.342;-1.290;2023-09-30T02:41:58;4;1;
28026;PMS5003;15344;52.342;-1.290;2023-09-30T02:44:24;1;1;
28026;PMS5003;15344;52.342;-1.290;2023-09-30T02:46:49;1;1;
28026;PMS5003;15344;52.342;-1.290;2023-09-30T02:49:14;1;1;
28026;PMS5003;15344;52.342;-1.290;2023-09-30T02:51:39;2;1;
28026;PMS5003;15344;52.342;-1.290;2023-09-30T02:54:05;1;1;
28026;PMS5003;15344;52.342;-1.290;2023-09-30T02:56:30;1;1;
28026;PMS5003;15344;52.342;-1.290;2023-09-30T02:58:55;2;2;
28026;PMS5003;15344;52.342;-1.290;2023-09-30T03:01:20;1;1;
28026;PMS5003;15344;52.342;-1.290;2023-09-30T03:03:45;0;0;
28026;PMS5003;15344;52.342;-1.290;2023-09-30T03:06:11;1;0;
28026;PMS5003;15344;52.342;-1.290;2023-09-30T03:08:36;1;1;
28026;PMS5003;15344;52.342;-1.290;2023-09-30T03:11:01;1;1;
28026;PMS5003;15344;52.342;-1.290;2023-09-30T03:13:26;3;1;
28026;PMS5003;15344;52.342;-1.290;2023-09-30T03:15:52;1;1;
28026;PMS5003;15344;52.342;-1.290;2023-09-30T03:18:17;3;1;
28026;PMS5003;15344;52.342;-1.290;2023-09-30T03:20:42;1;1;
28026;PMS5003;15344;52.342;-1.290;2023-09-30T03:23:07;2;2;
28026;PMS5003;15344;52.342;-1.290;2023-09-30T03:25:33;3;1;
28026;PMS5003;15344;52.342;-1.290;2023-09-30T03:27:59;16;10;
28026;PMS5003;15344;52.342;-1.290;2023-09-30T03:30:24;2;2;
28026;PMS5003;15344;52.342;-1.290;2023-09-30T03:32:50;1;1;
28026;PMS5003;15344;52.342;-1.290;2023-09-30T03:35:15;2;2;
28026;PMS5003;15344;52.342;-1.290;2023-09-30T03:37:40;1;1;
28026;PMS5003;15344;52.342;-1.290;2023-09-30T03:40:06;5;2;
28026;PMS5003;15344;52.342;-1.290;2023-09-30T03:42:30;5;3;
28026;PMS5003;15344;52.342;-1.290;2023-09-30T03:44:56;2;2;
28026;PMS5003;15344;52.342;-1.290;2023-09-30T03:47:21;2;2;
28026;PMS5003;15344;52.342;-1.290;2023-09-30T03:49:46;4;2;
28026;PMS5003;15344;52.342;-1.290;2023-09-30T03:52:11;6;2;
28026;PMS5003;15344;52.342;-1.290;2023-09-30T03:54:37;1;1;
28026;PMS5003;15344;52.342;-1.290;2023-09-30T03:57:02;1;1;
28026;PMS5003;15344;52.342;-1.290;2023-09-30T03:59:27;4;2;
28026;PMS5003;15344;52.342;-1.290;2023-09-30T04:01:52;1;1;
28026;PMS5003;15344;52.342;-1.290;2023-09-30T04:04:18;3;1;
28026;PMS5003;15344;52.342;-1.290;2023-09-30T04:06:43;3;2;
28026;PMS5003;15344;52.342;-1.290;2023-09-30T04:09:08;2;2;
28026;PMS5003;15344;52.342;-1.290;2023-09-30T04:11:33;1;1;
28026;PMS5003;15344;52.342;-1.290;2023-09-30T04:13:59;3;2;
28026;PMS5003;15344;52.342;-1.290;2023-09-30T04:16:24;3;1;
28026;PMS5003;15344;52.342;-1.290;2023-09-30T04:18:49;5;3;
28026;PMS5003;15344;52.342;-1.290;2023-09-30T04:21:14;1;1;
28026;PMS5003;15344;52.342;-1.290;2023-09-30T04:23:40;2;2;
28026;PMS5003;15344;52.342;-1.290;2023-09-30T04:26:05;3;1;
28026;PMS5003;15344;52.342;-1.290;2023-09-30T04:28:30;2;1;
28026;PMS5003;15344;52.342;-1.290;2023-09-30T04:30:55;1;1;
28026;PMS5003;15344;52.342;-1.290;2023-09-30T04:33:21;1;1;
28026;PMS5003;15344;52.342;-1.290;2023-09-30T04:35:46;1;1;
28026;PMS5003;15344;52.342;-1.290;2023-09-30T04:38:11;0;0;
28026;PMS5003;15344;52.342;-1.290;2023-09-30T04:40:36;1;1;
28026;PMS5003;15344;52.342;-1.290;2023-09-30T04:43:02;0;0;
28026;PMS5003;15344;52.342;-1.290;2023-09-30T04:45:27;1;1;
28026;PMS5003;15344;52.342;-1.290;2023-09-30T04:47:52;5;2;
28026;PMS5003;15344;52.342;-1.290;2023-09-30T04:50:17;1;1;
28026;PMS5003;15344;52.342;-1.290;2023-09-30T04:52:43;0;0;
28026;PMS5003;15344;52.342;-1.290;2023-09-30T04:55:08;2;1;
28026;PMS5003;15344;52.342;-1.290;2023-09-30T04:57:33;1;1;
28026;PMS5003;15344;52.342;-1.290;2023-09-30T04:59:58;3;2;
28026;PMS5003;15344;52.342;-1.290;2023-09-30T05:02:24;1;1;
28026;PMS5003;15344;52.342;-1.290;2023-09-30T05:04:49;2;1;
28026;PMS5003;15344;52.342;-1.290;2023-09-30T05:07:14;2;0;
28026;PMS5003;15344;52.342;-1.290;2023-09-30T05:09:39;1;0;
28026;PMS5003;15344;52.342;-1.290;2023-09-30T05:12:05;3;1;
28026;PMS5003;15344;52.342;-1.290;2023-09-30T05:14:30;1;1;
28026;PMS5003;15344;52.342;-1.290;2023-09-30T05:16:55;2;2;
28026;PMS5003;15344;52.342;-1.290;2023-09-30T05:19:20;2;1;
28026;PMS5003;15344;52.342;-1.290;2023-09-30T05:21:46;1;1;
28026;PMS5003;15344;52.342;-1.290;2023-09-30T05:24:11;2;2;
28026;PMS5003;15344;52.342;-1.290;2023-09-30T05:26:36;5;3;
28026;PMS5003;15344;52.342;-1.290;2023-09-30T05:29:01;2;2;
28026;PMS5003;15344;52.342;-1.290;2023-09-30T05:31:27;15;13;
28026;PMS5003;15344;52.342;-1.290;2023-09-30T05:33:52;0;0;
28026;PMS5003;15344;52.342;-1.290;2023-09-30T05:36:18;6;2;
28026;PMS5003;15344;52.342;-1.290;2023-09-30T05:38:43;1;1;
28026;PMS5003;15344;52.342;-1.290;2023-09-30T05:41:08;1;1;
28026;PMS5003;15344;52.342;-1.290;2023-09-30T05:43:33;0;0;
28026;PMS5003;15344;52.342;-1.290;2023-09-30T05:45:59;3;1;
28026;PMS5003;15344;52.342;-1.290;2023-09-30T05:48:24;3;1;
28026;PMS5003;15344;52.342;-1.290;2023-09-30T05:50:50;2;2;
28026;PMS5003;15344;52.342;-1.290;2023-09-30T05:53:15;1;1;
28026;PMS5003;15344;52.342;-1.290;2023-09-30T05:55:40;1;1;
28026;PMS5003;15344;52.342;-1.290;2023-09-30T05:58:05;0;0;
28026;PMS5003;15344;52.342;-1.290;2023-09-30T06:00:31;1;1;
28026;PMS5003;15344;52.342;-1.290;2023-09-30T06:02:56;0;0;
28026;PMS5003;15344;52.342;-1.290;2023-09-30T06:05:21;1;1;
28026;PMS5003;15344;52.342;-1.290;2023-09-30T06:07:46;1;1;
28026;PMS5003;15344;52.342;-1.290;2023-09-30T06:10:12;3;1;
28026;PMS5003;15344;52.342;-1.290;2023-09-30T06:12:37;2;0;
28026;PMS5003;15344;52.342;-1.290;2023-09-30T06:15:02;1;0;
28026;PMS5003;15344;52.342;-1.290;2023-09-30T06:17:27;1;1;
28026;PMS5003;15344;52.342;-1.290;2023-09-30T06:19:53;0;0;
28026;PMS5003;15344;52.342;-1.290;2023-09-30T06:22:18;1;1;
28026;PMS5003;15344;52.342;-1.290;2023-09-30T06:24:43;1;1;
28026;PMS5003;15344;52.342;-1.290;2023-09-30T06:27:08;2;1;
28026;PMS5003;15344;52.342;-1.290;2023-09-30T06:29:33;1;1;
28026;PMS5003;15344;52.342;-1.290;2023-09-30T06:31:59;0;0;
28026;PMS5003;15344;52.342;-1.290;2023-09-30T06:34:24;1;1;
28026;PMS5003;15344;52.342;-1.290;2023-09-30T06:36:49;1;1;
28026;PMS5003;15344;52.342;-1.290;2023-09-30T06:39:15;4;2;
28026;PMS5003;15344;52.342;-1.290;2023-09-30T06:41:40;2;1;
28026;PMS5003;15344;52.342;-1.290;2023-09-30T06:44:05;0;0;
28026;PMS5003;15344;52.342;-1.290;2023-09-30T06:46:30;2;0;
28026;PMS5003;15344;52.342;-1.290;2023-09-30T06:48:56;1;1;
28026;PMS5003;15344;52.342;-1.290;2023-09-30T06:51:21;0;0;
28026;PMS5003;15344;52.342;-1.290;2023-09-30T06:53:46;0;0;
28026;PMS5003;15344;52.342;-1.290;2023-09-30T06:56:11;0;0;
28026;PMS5003;15344;52.342;-1.290;2023-09-30T06:58:37;0;0;
28026;PMS5003;15344;52.342;-1.290;2023-09-30T07:01:02;1;1;
28026;PMS5003;15344;52.342;-1.290;2023-09-30T07:03:27;2;1;
28026;PMS5003;15344;52.342;-1.290;2023-09-30T07:05:52;2;0;
28026;PMS5003;15344;52.342;-1.290;2023-09-30T07:08:18;1;0;
28026;PMS5003;15344;52.342;-1.290;2023-09-30T07:10:43;1;1;
28026;PMS5003;15344;52.342;-1.290;2023-09-30T07:13:08;1;0;
28026;PMS5003;15344;52.342;-1.290;2023-09-30T07:15:33;3;1;
28026;PMS5003;15344;52.342;-1.290;2023-09-30T07:17:59;4;1;
28026;PMS5003;15344;52.342;-1.290;2023-09-30T07:20:24;2;2;
28026;PMS5003;15344;52.342;-1.290;2023-09-30T07:22:50;3;3;
28026;PMS5003;15344;52.342;-1.290;2023-09-30T07:25:14;2;2;
28026;PMS5003;15344;52.342;-1.290;2023-09-30T07:27:40;3;1;
28026;PMS5003;15344;52.342;-1.290;2023-09-30T07:30:05;3;3;
28026;PMS5003;15344;52.342;-1.290;2023-09-30T07:32:30;5;2;
28026;PMS5003;15344;52.342;-1.290;2023-09-30T07:34:55;4;3;
28026;PMS5003;15344;52.342;-1.290;2023-09-30T07:37:21;3;3;
28026;PMS5003;15344;52.342;-1.290;2023-09-30T07:39:46;8;4;
28026;PMS5003;15344;52.342;-1.290;2023-09-30T07:42:11;6;4;
28026;PMS5003;15344;52.342;-1.290;2023-09-30T07:44:37;2;2;
28026;PMS5003;15344;52.342;-1.290;2023-09-30T07:47:02;3;1;
28026;PMS5003;15344;52.342;-1.290;2023-09-30T07:49:27;5;1;
28026;PMS5003;15344;52.342;-1.290;2023-09-30T07:51:52;5;4;
28026;PMS5003;15344;52.342;-1.290;2023-09-30T07:54:17;6;2;
28026;PMS5003;15344;52.342;-1.290;2023-09-30T07:56:42;0;0;
28026;PMS5003;15344;52.342;-1.290;2023-09-30T07:59:08;2;2;
28026;PMS5003;15344;52.342;-1.290;2023-09-30T08:01:33;5;1;
28026;PMS5003;15344;52.342;-1.290;2023-09-30T08:03:58;6;1;
28026;PMS5003;15344;52.342;-1.290;2023-09-30T08:06:23;2;2;
28026;PMS5003;15344;52.342;-1.290;2023-09-30T08:08:48;5;2;
28026;PMS5003;15344;52.342;-1.290;2023-09-30T08:11:14;4;2;
28026;PMS5003;15344;52.342;-1.290;2023-09-30T08:13:39;6;2;
28026;PMS5003;15344;52.342;-1.290;2023-09-30T08:16:04;1;1;
28026;PMS5003;15344;52.342;-1.290;2023-09-30T08:18:29;3;2;
28026;PMS5003;15344;52.342;-1.290;2023-09-30T08:20:54;5;2;
28026;PMS5003;15344;52.342;-1.290;2023-09-30T08:23:19;5;3;
28026;PMS5003;15344;52.342;-1.290;2023-09-30T08:25:44;2;0;
28026;PMS5003;15344;52.342;-1.290;2023-09-30T08:28:10;2;2;
28026;PMS5003;15344;52.342;-1.290;2023-09-30T08:30:35;2;2;
28026;PMS5003;15344;52.342;-1.290;2023-09-30T08:33:00;3;3;
28026;PMS5003;15344;52.342;-1.290;2023-09-30T08:35:25;1;1;
28026;PMS5003;15344;52.342;-1.290;2023-09-30T08:37:51;5;5;
28026;PMS5003;15344;52.342;-1.290;2023-09-30T08:40:19;7;1;
28026;PMS5003;15344;52.342;-1.290;2023-09-30T08:42:41;6;3;
28026;PMS5003;15344;52.342;-1.290;2023-09-30T08:45:08;3;3;
28026;PMS5003;15344;52.342;-1.290;2023-09-30T08:47:31;2;2;
28026;PMS5003;15344;52.342;-1.290;2023-09-30T08:49:57;3;3;
28026;PMS5003;15344;52.342;-1.290;2023-09-30T08:52:22;3;1;
28026;PMS5003;15344;52.342;-1.290;2023-09-30T08:54:47;6;6;
28026;PMS5003;15344;52.342;-1.290;2023-09-30T08:57:12;3;3;
28026;PMS5003;15344;52.342;-1.290;2023-09-30T08:59:38;3;1;
28026;PMS5003;15344;52.342;-1.290;2023-09-30T09:02:03;6;4;
28026;PMS5003;15344;52.342;-1.290;2023-09-30T09:04:28;11;2;
28026;PMS5003;15344;52.342;-1.290;2023-09-30T09:06:54;7;4;
28026;PMS5003;15344;52.342;-1.290;2023-09-30T09:09:19;4;3;
28026;PMS5003;15344;52.342;-1.290;2023-09-30T09:11:44;4;2;
28026;PMS5003;15344;52.342;-1.290;2023-09-30T09:14:09;5;5;
28026;PMS5003;15344;52.342;-1.290;2023-09-30T09:16:34;7;4;
28026;PMS5003;15344;52.342;-1.290;2023-09-30T09:18:59;5;3;
28026;PMS5003;15344;52.342;-1.290;2023-09-30T09:21:24;8;4;
28026;PMS5003;15344;52.342;-1.290;2023-09-30T09:23:50;2;2;
28026;PMS5003;15344;52.342;-1.290;2023-09-30T09:28:40;4;1;
28026;PMS5003;15344;52.342;-1.290;2023-09-30T09:35:55;4;2;
28026;PMS5003;15344;52.342;-1.290;2023-09-30T09:38:21;8;8;
28026;PMS5003;15344;52.342;-1.290;2023-09-30T09:40:46;2;2;
28026;PMS5003;15344;52.342;-1.290;2023-09-30T09:43:11;2;2;
28026;PMS5003;15344;52.342;-1.290;2023-09-30T09:45:36;7;7;
28026;PMS5003;15344;52.342;-1.290;2023-09-30T09:48:02;6;3;
28026;PMS5003;15344;52.342;-1.290;2023-09-30T09:50:26;2;2;
28026;PMS5003;15344;52.342;-1.290;2023-09-30T09:52:52;2;2;
28026;PMS5003;15344;52.342;-1.290;2023-09-30T09:55:17;3;2;
28026;PMS5003;15344;52.342;-1.290;2023-09-30T09:57:42;5;2;
28026;PMS5003;15344;52.342;-1.290;2023-09-30T10:00:07;4;4;
28026;PMS5003;15344;52.342;-1.290;2023-09-30T10:02:32;1;0;
28026;PMS5003;15344;52.342;-1.290;2023-09-30T10:04:57;5;2;
28026;PMS5003;15344;52.342;-1.290;2023-09-30T10:07:25;1;1;
28026;PMS5003;15344;52.342;-1.290;2023-09-30T10:09:47;5;2;
28026;PMS5003;15344;52.342;-1.290;2023-09-30T10:12:12;5;2;
28026;PMS5003;15344;52.342;-1.290;2023-09-30T10:14:37;3;2;
28026;PMS5003;15344;52.342;-1.290;2023-09-30T10:17:02;1;1;
28026;PMS5003;15344;52.342;-1.290;2023-09-30T10:19:27;6;3;
28026;PMS5003;15344;52.342;-1.290;2023-09-30T10:26:42;5;2;
28026;PMS5003;15344;52.342;-1.290;2023-09-30T10:29:08;3;2;
28026;PMS5003;15344;52.342;-1.290;2023-09-30T10:31:32;3;2;
28026;PMS5003;15344;52.342;-1.290;2023-09-30T10:36:26;2;1;
28026;PMS5003;15344;52.342;-1.290;2023-09-30T10:38:48;3;0;
28026;PMS5003;15344;52.342;-1.290;2023-09-30T10:41:48;2;1;
28026;PMS5003;15344;52.342;-1.290;2023-09-30T10:43:39;1;1;
28026;PMS5003;15344;52.342;-1.290;2023-09-30T10:46:04;1;1;
28026;PMS5003;15344;52.342;-1.290;2023-09-30T10:48:32;5;2;
28026;PMS5003;15344;52.342;-1.290;2023-09-30T10:50:54;3;1;
28026;PMS5003;15344;52.342;-1.290;2023-09-30T10:53:19;3;2;
28026;PMS5003;15344;52.342;-1.290;2023-09-30T10:55:45;0;0;
28026;PMS5003;15344;52.342;-1.290;2023-09-30T10:58:09;4;1;
28026;PMS5003;15344;52.342;-1.290;2023-09-30T11:00:35;2;1;
28026;PMS5003;15344;52.342;-1.290;2023-09-30T11:03:00;5;2;
28026;PMS5003;15344;52.342;-1.290;2023-09-30T11:05:25;1;1;
28026;PMS5003;15344;52.342;-1.290;2023-09-30T11:07:50;2;2;
28026;PMS5003;15344;52.342;-1.290;2023-09-30T11:10:16;4;1;
28026;PMS5003;15344;52.342;-1.290;2023-09-30T11:12:42;4;2;
28026;PMS5003;15344;52.342;-1.290;2023-09-30T11:15:06;11;2;
28026;PMS5003;15344;52.342;-1.290;2023-09-30T11:17:30;1;0;
28026;PMS5003;15344;52.342;-1.290;2023-09-30T11:19:55;4;1;
28026;PMS5003;15344;52.342;-1.290;2023-09-30T11:22:20;3;3;
28026;PMS5003;15344;52.342;-1.290;2023-09-30T11:24:45;4;0;
28026;PMS5003;15344;52.342;-1.290;2023-09-30T11:27:11;4;2;
28026;PMS5003;15344;52.342;-1.290;2023-09-30T11:29:36;3;2;
28026;PMS5003;15344;52.342;-1.290;2023-09-30T11:32:01;1;1;
28026;PMS5003;15344;52.342;-1.290;2023-09-30T11:34:31;1;1;
28026;PMS5003;15344;52.342;-1.290;2023-09-30T11:36:52;2;2;
28026;PMS5003;15344;52.342;-1.290;2023-09-30T11:39:21;1;0;
28026;PMS5003;15344;52.342;-1.290;2023-09-30T11:41:41;3;2;
28026;PMS5003;15344;52.342;-1.290;2023-09-30T11:44:07;2;1;
28026;PMS5003;15344;52.342;-1.290;2023-09-30T11:46:31;3;0;
28026;PMS5003;15344;52.342;-1.290;2023-09-30T11:48:57;4;2;
28026;PMS5003;15344;52.342;-1.290;2023-09-30T11:51:21;1;1;
28026;PMS5003;15344;52.342;-1.290;2023-09-30T11:53:46;0;0;
28026;PMS5003;15344;52.342;-1.290;2023-09-30T11:56:12;3;2;
28026;PMS5003;15344;52.342;-1.290;2023-09-30T11:58:37;4;1;
28026;PMS5003;15344;52.342;-1.290;2023-09-30T12:01:02;5;3;
28026;PMS5003;15344;52.342;-1.290;2023-09-30T12:03:27;1;1;
28026;PMS5003;15344;52.342;-1.290;2023-09-30T12:05:52;2;2;
28026;PMS5003;15344;52.342;-1.290;2023-09-30T12:08:17;3;2;
28026;PMS5003;15344;52.342;-1.290;2023-09-30T12:10:42;2;0;
28026;PMS5003;15344;52.342;-1.290;2023-09-30T12:13:07;4;1;
28026;PMS5003;15344;52.342;-1.290;2023-09-30T12:15:32;1;0;
28026;PMS5003;15344;52.342;-1.290;2023-09-30T12:17:57;3;2;
28026;PMS5003;15344;52.342;-1.290;2023-09-30T12:20:22;3;3;
28026;PMS5003;15344;52.342;-1.290;2023-09-30T12:22:47;1;1;
28026;PMS5003;15344;52.342;-1.290;2023-09-30T12:25:12;3;1;
28026;PMS5003;15344;52.342;-1.290;2023-09-30T12:27:37;3;3;
28026;PMS5003;15344;52.342;-1.290;2023-09-30T12:30:02;5;1;
28026;PMS5003;15344;52.342;-1.290;2023-09-30T12:32:27;7;2;
28026;PMS5003;15344;52.342;-1.290;2023-09-30T12:34:52;4;1;
28026;PMS5003;15344;52.342;-1.290;2023-09-30T12:37:17;1;1;
28026;PMS5003;15344;52.342;-1.290;2023-09-30T12:39:42;2;2;
28026;PMS5003;15344;52.342;-1.290;2023-09-30T12:42:07;1;1;
28026;PMS5003;15344;52.342;-1.290;2023-09-30T12:44:33;1;1;
28026;PMS5003;15344;52.342;-1.290;2023-09-30T12:46:58;3;3;
28026;PMS5003;15344;52.342;-1.290;2023-09-30T12:49:24;4;4;
28026;PMS5003;15344;52.342;-1.290;2023-09-30T12:51:49;2;2;
28026;PMS5003;15344;52.342;-1.290;2023-09-30T12:54:14;1;1;
28026;PMS5003;15344;52.342;-1.290;2023-09-30T12:56:39;1;1;
28026;PMS5003;15344;52.342;-1.290;2023-09-30T12:59:04;6;5;
28026;PMS5003;15344;52.342;-1.290;2023-09-30T13:01:29;4;3;
28026;PMS5003;15344;52.342;-1.290;2023-09-30T13:03:54;2;2;
28026;PMS5003;15344;52.342;-1.290;2023-09-30T13:06:19;7;5;
28026;PMS5003;15344;52.342;-1.290;2023-09-30T13:08:45;2;2;
28026;PMS5003;15344;52.342;-1.290;2023-09-30T13:11:10;3;2;
28026;PMS5003;15344;52.342;-1.290;2023-09-30T13:13:35;6;3;
28026;PMS5003;15344;52.342;-1.290;2023-09-30T13:16:00;5;5;
28026;PMS5003;15344;52.342;-1.290;2023-09-30T13:18:25;4;4;
28026;PMS5003;15344;52.342;-1.290;2023-09-30T13:20:50;8;5;
28026;PMS5003;15344;52.342;-1.290;2023-09-30T13:23:15;7;5;
28026;PMS5003;15344;52.342;-1.290;2023-09-30T13:25:41;4;3;
28026;PMS5003;15344;52.342;-1.290;2023-09-30T13:28:06;2;1;
28026;PMS5003;15344;52.342;-1.290;2023-09-30T13:30:31;44;34;
28026;PMS5003;15344;52.342;-1.290;2023-09-30T13:32:57;123;110;
28026;PMS5003;15344;52.342;-1.290;2023-09-30T13:35:21;79;70;
28026;PMS5003;15344;52.342;-1.290;2023-09-30T13:37:47;52;39;
28026;PMS5003;15344;52.342;-1.290;2023-09-30T13:40:13;13;9;
28026;PMS5003;15344;52.342;-1.290;2023-09-30T13:42:38;70;59;
28026;PMS5003;15344;52.342;-1.290;2023-09-30T13:45:04;23;12;
28026;PMS5003;15344;52.342;-1.290;2023-09-30T13:47:29;103;93;
28026;PMS5003;15344;52.342;-1.290;2023-09-30T13:49:54;27;27;
28026;PMS5003;15344;52.342;-1.290;2023-09-30T13:52:19;48;37;
28026;PMS5003;15344;52.342;-1.290;2023-09-30T13:54:45;66;55;
28026;PMS5003;15344;52.342;-1.290;2023-09-30T13:57:10;38;27;
28026;PMS5003;15344;52.342;-1.290;2023-09-30T13:59:36;29;23;
28026;PMS5003;15344;52.342;-1.290;2023-09-30T14:02:01;21;12;
28026;PMS5003;15344;52.342;-1.290;2023-09-30T14:04:26;52;43;
28026;PMS5003;15344;52.342;-1.290;2023-09-30T14:06:52;38;29;
28026;PMS5003;15344;52.342;-1.290;2023-09-30T14:09:17;20;9;
28026;PMS5003;15344;52.342;-1.290;2023-09-30T14:11:43;50;41;
28026;PMS5003;15344;52.342;-1.290;2023-09-30T14:14:08;39;31;
28026;PMS5003;15344;52.342;-1.290;2023-09-30T14:16:33;55;47;
28026;PMS5003;15344;52.342;-1.290;2023-09-30T14:18:59;19;13;
28026;PMS5003;15344;52.342;-1.290;2023-09-30T14:21:25;61;49;
28026;PMS5003;15344;52.342;-1.290;2023-09-30T14:23:50;36;25;
28026;PMS5003;15344;52.342;-1.290;2023-09-30T14:26:16;46;37;
28026;PMS5003;15344;52.342;-1.290;2023-09-30T14:28:41;26;15;
28026;PMS5003;15344;52.342;-1.290;2023-09-30T14:31:06;31;21;
28026;PMS5003;15344;52.342;-1.290;2023-09-30T14:33:32;53;45;
28026;PMS5003;15344;52.342;-1.290;2023-09-30T14:35:58;38;34;
28026;PMS5003;15344;52.342;-1.290;2023-09-30T14:38:23;34;24;
28026;PMS5003;15344;52.342;-1.290;2023-09-30T14:40:49;48;42;
28026;PMS5003;15344;52.342;-1.290;2023-09-30T14:43:15;21;15;
28026;PMS5003;15344;52.342;-1.290;2023-09-30T14:45:40;56;43;
28026;PMS5003;15344;52.342;-1.290;2023-09-30T14:48:06;38;27;
28026;PMS5003;15344;52.342;-1.290;2023-09-30T14:50:31;21;17;
28026;PMS5003;15344;52.342;-1.290;2023-09-30T14:52:56;17;9;
28026;PMS5003;15344;52.342;-1.290;2023-09-30T14:55:22;47;36;
28026;PMS5003;15344;52.342;-1.290;2023-09-30T14:57:47;21;21;
28026;PMS5003;15344;52.342;-1.290;2023-09-30T15:00:13;39;28;
28026;PMS5003;15344;52.342;-1.290;2023-09-30T15:02:38;20;17;
28026;PMS5003;15344;52.342;-1.290;2023-09-30T15:05:04;42;34;
28026;PMS5003;15344;52.342;-1.290;2023-09-30T15:07:29;36;27;
28026;PMS5003;15344;52.342;-1.290;2023-09-30T15:09:55;34;30;
28026;PMS5003;15344;52.342;-1.290;2023-09-30T15:12:20;40;37;
28026;PMS5003;15344;52.342;-1.290;2023-09-30T15:14:45;33;26;
28026;PMS5003;15344;52.342;-1.290;2023-09-30T15:17:11;48;39;
28026;PMS5003;15344;52.342;-1.290;2023-09-30T15:19:36;50;39;
28026;PMS5003;15344;52.342;-1.290;2023-09-30T15:22:01;39;32;
28026;PMS5003;15344;52.342;-1.290;2023-09-30T15:24:27;41;32;
28026;PMS5003;15344;52.342;-1.290;2023-09-30T15:26:53;60;54;
28026;PMS5003;15344;52.342;-1.290;2023-09-30T15:29:18;45;39;
28026;PMS5003;15344;52.342;-1.290;2023-09-30T15:31:43;60;50;
28026;PMS5003;15344;52.342;-1.290;2023-09-30T15:34:09;42;32;
28026;PMS5003;15344;52.342;-1.290;2023-09-30T15:36:34;40;33;
28026;PMS5003;15344;52.342;-1.290;2023-09-30T15:39:00;72;66;
28026;PMS5003;15344;52.342;-1.290;2023-09-30T15:41:25;59;50;
28026;PMS5003;15344;52.342;-1.290;2023-09-30T15:43:52;63;52;
28026;PMS5003;15344;52.342;-1.290;2023-09-30T15:46:16;58;55;
28026;PMS5003;15344;52.342;-1.290;2023-09-30T15:48:41;52;44;
28026;PMS5003;15344;52.342;-1.290;2023-09-30T15:51:07;56;51;
28026;PMS5003;15344;52.342;-1.290;2023-09-30T15:53:32;41;32;
28026;PMS5003;15344;52.342;-1.290;2023-09-30T15:55:58;50;41;
28026;PMS5003;15344;52.342;-1.290;2023-09-30T15:58:24;69;59;
28026;PMS5003;15344;52.342;-1.290;2023-09-30T16:00:49;42;35;
28026;PMS5003;15344;52.342;-1.290;2023-09-30T16:03:14;38;31;
28026;PMS5003;15344;52.342;-1.290;2023-09-30T16:05:39;61;51;
28026;PMS5003;15344;52.342;-1.290;2023-09-30T16:08:05;55;44;
28026;PMS5003;15344;52.342;-1.290;2023-09-30T16:10:30;330;328;
28026;PMS5003;15344;52.342;-1.290;2023-09-30T16:12:55;341;339;
28026;PMS5003;15344;52.342;-1.290;2023-09-30T16:15:21;285;285;
28026;PMS5003;15344;52.342;-1.290;2023-09-30T16:17:46;291;291;
28026;PMS5003;15344;52.342;-1.290;2023-09-30T16:20:11;252;250;
28026;PMS5003;15344;52.342;-1.290;2023-09-30T16:22:36;192;184;
28026;PMS5003;15344;52.342;-1.290;2023-09-30T16:25:01;226;220;
28026;PMS5003;15344;52.342;-1.290;2023-09-30T16:27:26;194;194;